Time;durP1;ratioP1;P1;durP2;ratioP2;P2;SDS_P1;SDS_P2;PMS_P1;PMS_P2;Temp;Humidity;BMP_temperature;BMP_pressure;BME280_temperature;BME280_humidity;BME280_pressure;Samples;Min_cycle;Max_cycle;Signal;HPM_P1;HPM_P2
2022/01/13 00:01:30;;;;;;;14.43;7.22;;;;;;;-0.88;61.00;101347.69;3155795;28;20098;-66
2022/01/13 00:03:02;;;;;;;17.63;7.50;;;;;;;-0.90;61.14;101346.78;3156987;28;20059;-66
2022/01/13 00:04:34;;;;;;;15.93;7.30;;;;;;;-0.95;61.25;101353.47;3155542;28;20105;-68
2022/01/13 00:06:06;;;;;;;14.57;6.65;;;;;;;-0.96;61.26;101351.75;3157920;28;20051;-67
2022/01/13 00:07:38;;;;;;;14.80;7.65;;;;;;;-1.04;61.34;101343.84;3156553;28;20126;-66
2022/01/13 00:09:11;;;;;;;14.93;7.22;;;;;;;-1.03;61.54;101352.41;3156834;28;20036;-67
2022/01/13 00:10:43;;;;;;;16.10;7.30;;;;;;;-1.05;61.47;101351.50;3157920;28;20433;-67
2022/01/13 00:12:18;;;;;;;16.48;7.43;;;;;;;-1.07;61.52;101358.25;3156534;28;20055;-67
2022/01/13 00:13:56;;;;;;;16.25;7.22;;;;;;;-1.10;61.59;101355.63;3151973;28;20072;-67
2022/01/13 00:15:40;;;;;;;13.95;6.78;;;;;;;-1.13;61.65;101355.53;3156937;28;20098;-67
2022/01/13 00:17:25;;;;;;;14.35;7.40;;;;;;;-1.17;61.83;101362.25;3155789;28;20071;-67
2022/01/13 00:19:05;;;;;;;16.17;7.60;;;;;;;-1.21;61.98;101358.75;3156408;28;20048;-67
2022/01/13 00:21:12;;;;;;;16.13;7.38;;;;;;;-1.23;61.85;101356.97;3156461;28;20585;-67
2022/01/13 00:23:37;;;;;;;16.25;7.82;;;;;;;-1.28;62.01;101364.50;3155841;28;20052;-67
2022/01/13 00:24:40;;;;;;;15.77;6.85;;;;;;;-1.33;62.17;101360.97;3156299;28;20252;-67
2022/01/13 00:26:18;;;;;;;13.43;6.97;;;;;;;-1.31;62.22;101361.00;3153530;28;20053;-67
2022/01/13 00:27:55;;;;;;;12.98;6.88;;;;;;;-1.33;62.21;101366.09;3163093;28;20048;-67
2022/01/13 00:29:30;;;;;;;16.67;7.90;;;;;;;-1.36;62.35;101368.56;3158079;28;20583;-65
2022/01/13 00:31:05;;;;;;;14.32;6.55;;;;;;;-1.35;62.08;101364.31;3159930;28;20452;-65
2022/01/13 00:32:37;;;;;;;14.32;7.03;;;;;;;-1.38;62.09;101370.19;3164397;28;20503;-64
2022/01/13 00:34:09;;;;;;;15.88;7.22;;;;;;;-1.41;62.19;101372.66;3155522;28;20689;-65
2022/01/13 00:35:41;;;;;;;15.80;7.20;;;;;;;-1.40;62.40;101375.25;3161189;28;20435;-65
2022/01/13 00:37:13;;;;;;;13.95;6.72;;;;;;;-1.43;62.38;101374.28;3163878;28;20140;-65
2022/01/13 00:38:46;;;;;;;14.88;6.38;;;;;;;-1.42;62.38;101386.22;3158987;28;20116;-66
2022/01/13 00:40:18;;;;;;;15.38;6.68;;;;;;;-1.45;62.58;101376.81;3162690;28;20347;-66
2022/01/13 00:41:50;;;;;;;14.75;6.93;;;;;;;-1.47;62.57;101381.00;3159063;28;20131;-66
2022/01/13 00:43:21;;;;;;;12.70;6.40;;;;;;;-1.49;62.55;101386.91;3156097;28;20428;-66
2022/01/13 00:44:53;;;;;;;13.48;6.30;;;;;;;-1.50;62.70;101390.28;3167917;28;20083;-66
2022/01/13 00:46:28;;;;;;;12.32;6.05;;;;;;;-1.56;62.67;101398.63;3158277;28;20044;-66
2022/01/13 00:48:00;;;;;;;13.27;6.47;;;;;;;-1.54;62.81;101396.09;3156623;28;20059;-66
2022/01/13 00:49:32;;;;;;;13.80;6.78;;;;;;;-1.56;62.41;101400.31;3166440;28;20411;-66
2022/01/13 00:51:04;;;;;;;14.18;7.32;;;;;;;-1.59;62.78;101392.56;3156089;28;20109;-65
2022/01/13 00:52:36;;;;;;;13.32;6.75;;;;;;;-1.56;62.60;101410.53;3156890;28;20048;-65
2022/01/13 00:54:10;;;;;;;13.35;7.03;;;;;;;-1.57;62.72;101407.09;3164709;28;20058;-65
2022/01/13 00:55:48;;;;;;;16.17;6.75;;;;;;;-1.60;62.94;101407.00;3157557;28;20049;-65
2022/01/13 00:57:20;;;;;;;16.38;7.05;;;;;;;-2.04;62.95;101335.03;3162806;28;20053;-65
2022/01/13 00:58:52;;;;;;;15.75;6.60;;;;;;;-1.64;63.10;101405.19;3160299;28;20044;-65
2022/01/13 01:00:24;;;;;;;17.25;7.80;;;;;;;-1.66;63.28;101406.81;3157331;28;20375;-64
2022/01/13 01:01:56;;;;;;;12.80;6.97;;;;;;;-1.68;63.47;101399.13;3165339;28;20048;-67
2022/01/13 01:03:28;;;;;;;13.90;7.00;;;;;;;-1.67;63.51;101403.41;3159363;28;20063;-67
2022/01/13 01:05:00;;;;;;;15.15;7.55;;;;;;;-1.70;63.37;101403.31;3152819;28;20064;-67
2022/01/13 01:06:33;;;;;;;15.25;7.28;;;;;;;-1.70;63.42;101400.75;3157048;28;20052;-66
2022/01/13 01:08:07;;;;;;;15.02;7.65;;;;;;;-2.12;63.81;101339.91;3155521;28;20052;-67
2022/01/13 01:09:47;;;;;;;14.48;7.43;;;;;;;-1.73;63.70;101405.78;3154277;28;20135;-67
2022/01/13 01:11:20;;;;;;;17.40;7.43;;;;;;;-1.74;64.01;101413.41;3156121;28;20263;-67
2022/01/13 01:12:52;;;;;;;17.35;7.22;;;;;;;-1.98;64.04;101378.63;3156075;28;20052;-67
2022/01/13 01:14:25;;;;;;;15.93;7.32;;;;;;;-1.74;64.39;101416.81;3155943;28;20040;-68
2022/01/13 01:16:00;;;;;;;14.73;6.55;;;;;;;-1.73;64.18;101418.53;3155839;28;20081;-68
2022/01/13 01:17:34;;;;;;;16.48;7.43;;;;;;;-1.71;64.21;101408.38;3154507;28;20138;-68
2022/01/13 01:19:07;;;;;;;17.05;7.53;;;;;;;-1.72;64.34;101412.59;3152180;28;20048;-68
2022/01/13 01:20:48;;;;;;;15.73;7.03;;;;;;;-1.71;64.36;101413.50;3155899;28;20544;-66
2022/01/13 01:22:39;;;;;;;18.00;8.02;;;;;;;-1.78;64.38;101403.91;3152127;28;20044;-65
2022/01/13 01:24:54;;;;;;;16.00;7.63;;;;;;;-1.95;64.35;101380.38;3156165;28;20135;-66
2022/01/13 01:26:31;;;;;;;16.98;7.65;;;;;;;-1.96;64.66;101386.31;3152558;28;20525;-67
2022/01/13 01:28:09;;;;;;;19.00;7.72;;;;;;;-1.79;64.88;101420.91;3156908;28;20097;-65
2022/01/13 01:29:50;;;;;;;17.48;7.60;;;;;;;-1.74;64.74;101424.47;3155902;28;20119;-65
2022/01/13 01:31:28;;;;;;;14.43;7.25;;;;;;;-1.72;64.99;101421.97;3154203;28;20354;-67
2022/01/13 01:33:00;;;;;;;14.55;7.70;;;;;;;-1.71;64.86;101426.25;3156356;28;20358;-65
2022/01/13 01:34:49;;;;;;;16.55;7.25;;;;;;;-1.68;65.06;101419.56;3155887;28;20192;-66
2022/01/13 01:36:21;;;;;;;16.23;7.53;;;;;;;-1.69;65.04;101430.56;3152734;28;20150;-66
2022/01/13 01:37:54;;;;;;;14.68;7.10;;;;;;;-1.69;64.91;101422.91;3155969;28;20048;-66
2022/01/13 01:39:26;;;;;;;17.10;7.80;;;;;;;-1.63;65.17;101430.78;3154923;28;20044;-66
2022/01/13 01:40:58;;;;;;;17.85;7.65;;;;;;;-1.61;65.10;101433.38;3156952;28;20052;-66
2022/01/13 01:42:31;;;;;;;16.70;7.85;;;;;;;-1.55;65.09;101435.25;3155733;28;20047;-66
2022/01/13 01:44:06;;;;;;;17.40;7.55;;;;;;;-1.55;65.16;101437.81;3155695;28;20056;-66
2022/01/13 01:45:44;;;;;;;14.15;6.78;;;;;;;-1.66;65.26;101422.13;3156386;28;20094;-66
2022/01/13 01:47:17;;;;;;;17.75;8.55;;;;;;;-1.55;65.38;101435.25;3155123;28;20063;-66
2022/01/13 01:48:49;;;;;;;16.95;7.68;;;;;;;-1.54;65.44;101440.41;3155120;28;20051;-66
2022/01/13 01:50:24;;;;;;;16.50;7.70;;;;;;;-1.54;65.67;101435.28;3155925;28;20393;-66
2022/01/13 01:51:59;;;;;;;16.88;8.00;;;;;;;-1.51;65.57;101435.41;3153617;28;20460;-66
2022/01/13 01:53:31;;;;;;;16.38;7.93;;;;;;;-1.49;65.59;101432.88;3152419;28;20101;-66
2022/01/13 01:55:02;;;;;;;20.85;7.72;;;;;;;-1.47;65.59;101426.13;3155063;28;20093;-67
2022/01/13 01:56:35;;;;;;;20.00;8.00;;;;;;;-1.46;65.74;101426.16;3152042;28;20462;-66
2022/01/13 01:58:10;;;;;;;16.13;7.93;;;;;;;-1.44;65.71;101423.69;3156476;28;20135;-66
2022/01/13 01:59:42;;;;;;;16.35;7.50;;;;;;;-1.45;65.72;101419.38;3155355;28;20046;-66
2022/01/13 02:01:14;;;;;;;15.85;7.72;;;;;;;-1.46;65.88;101427.88;3153770;28;20044;-66
2022/01/13 02:02:46;;;;;;;16.95;7.93;;;;;;;-1.48;65.88;101426.94;3156554;28;20048;-66
2022/01/13 02:04:18;;;;;;;15.52;7.10;;;;;;;-1.50;66.10;101418.38;3153999;28;20048;-66
2022/01/13 02:05:50;;;;;;;17.85;7.72;;;;;;;-1.53;65.93;101424.25;3156442;28;20059;-66
2022/01/13 02:07:22;;;;;;;17.52;7.85;;;;;;;-1.55;65.97;101425.03;3156389;28;20043;-67
2022/01/13 02:08:56;;;;;;;15.07;7.78;;;;;;;-1.58;65.97;101420.69;3154536;28;20494;-67
2022/01/13 02:10:28;;;;;;;18.95;7.78;;;;;;;-1.65;66.03;101419.66;3150366;28;20456;-66
2022/01/13 02:12:04;;;;;;;16.00;8.50;;;;;;;-1.65;66.03;101413.69;3155704;28;20052;-66
2022/01/13 02:13:45;;;;;;;19.63;7.45;;;;;;;-1.68;66.06;101414.44;3153809;28;20048;-66
2022/01/13 02:15:30;;;;;;;17.15;8.43;;;;;;;-1.73;66.29;101415.13;3156548;28;20059;-66
2022/01/13 02:17:07;;;;;;;18.58;8.30;;;;;;;-1.77;66.44;101415.88;3155518;28;20544;-66
2022/01/13 02:18:39;;;;;;;17.52;8.23;;;;;;;-1.82;66.50;101420.81;3153446;28;20456;-66
2022/01/13 02:20:17;;;;;;;15.93;7.47;;;;;;;-1.88;66.34;101413.81;3155934;28;20040;-66
2022/01/13 02:21:49;;;;;;;18.73;7.95;;;;;;;-1.89;66.69;101413.78;3154942;28;20101;-66
2022/01/13 02:23:32;;;;;;;16.13;7.35;;;;;;;-1.90;66.62;101418.00;3155269;28;20048;-66
2022/01/13 02:25:05;;;;;;;16.20;7.90;;;;;;;-1.97;66.91;101416.09;3157588;28;20080;-67
2022/01/13 02:26:37;;;;;;;18.63;8.27;;;;;;;-1.97;66.96;101426.31;3157003;28;20044;-66
2022/01/13 02:28:09;;;;;;;17.27;8.48;;;;;;;-1.97;66.78;101425.44;3159160;28;20052;-66
2022/01/13 02:29:41;;;;;;;19.48;8.20;;;;;;;-2.03;66.95;101430.34;3157770;28;20086;-67
2022/01/13 02:31:13;;;;;;;16.42;7.03;;;;;;;-2.06;66.95;101419.22;3155934;28;20048;-66
2022/01/13 02:32:45;;;;;;;17.88;7.60;;;;;;;-2.06;67.05;101419.22;3153110;28;20067;-66
2022/01/13 02:34:17;;;;;;;18.65;8.27;;;;;;;-2.09;66.91;101416.56;3156420;28;20408;-67
2022/01/13 02:35:51;;;;;;;17.63;8.27;;;;;;;-2.06;67.10;101410.69;3152400;28;20125;-68
2022/01/13 02:37:23;;;;;;;17.15;7.03;;;;;;;-2.11;66.92;101409.69;3157836;28;20427;-67
2022/01/13 02:38:56;;;;;;;14.07;7.03;;;;;;;-2.14;67.04;101414.69;3154490;28;20062;-67
2022/01/13 02:40:28;;;;;;;18.88;8.50;;;;;;;-2.16;67.15;101421.41;3156842;28;20101;-67
2022/01/13 02:42:02;;;;;;;18.27;7.70;;;;;;;-2.17;67.15;101412.91;3155850;28;20052;-66
2022/01/13 02:43:34;;;;;;;18.67;8.35;;;;;;;-2.19;67.21;101412.00;3155797;28;20112;-66
2022/01/13 02:45:15;;;;;;;18.02;7.75;;;;;;;-2.29;67.14;101389.53;3157575;28;20051;-66
2022/01/13 02:47:09;;;;;;;16.15;7.82;;;;;;;-2.25;67.41;101399.00;3155833;28;20143;-67
2022/01/13 02:48:41;;;;;;;15.88;7.45;;;;;;;-2.33;67.43;101401.34;3158380;28;20488;-66
2022/01/13 02:50:13;;;;;;;15.95;7.25;;;;;;;-2.31;67.57;101412.47;3157658;28;20054;-67
2022/01/13 02:51:50;;;;;;;19.83;8.70;;;;;;;-2.31;67.61;101397.16;3157472;28;20390;-67
2022/01/13 02:53:22;;;;;;;21.27;8.25;;;;;;;-2.34;67.82;101402.16;3157993;28;20848;-66
2022/01/13 02:54:54;;;;;;;16.60;7.40;;;;;;;-2.37;67.72;101403.72;3156528;28;20070;-67
2022/01/13 02:56:27;;;;;;;14.82;7.20;;;;;;;-2.37;67.82;101403.72;3153606;28;20113;-67
2022/01/13 02:57:59;;;;;;;19.40;8.23;;;;;;;-2.39;67.85;101407.94;3157671;28;20051;-67
2022/01/13 02:59:31;;;;;;;16.63;7.70;;;;;;;-2.41;67.97;101407.00;3156282;28;20467;-66
2022/01/13 03:01:05;;;;;;;18.50;7.63;;;;;;;-2.49;67.98;101385.47;3157541;28;20108;-66
2022/01/13 03:02:36;;;;;;;18.90;7.88;;;;;;;-2.44;68.21;101401.78;3157236;28;20138;-68
2022/01/13 03:04:09;;;;;;;15.52;7.78;;;;;;;-2.48;68.26;101398.28;3157312;28;20060;-65
2022/01/13 03:05:41;;;;;;;16.75;7.70;;;;;;;-2.46;68.26;101413.63;3156948;28;20048;-68
2022/01/13 03:07:14;;;;;;;20.05;8.20;;;;;;;-2.49;68.24;101409.28;3157369;28;20044;-66
2022/01/13 03:08:47;;;;;;;;;;;;;;;-2.68;68.49;101405.25;3153102;28;20073;-66
2022/01/13 03:10:19;;;;;;;17.80;8.10;;;;;;;-2.65;68.95;101402.81;3157892;28;19992;-66
2022/01/13 03:11:51;;;;;;;18.30;8.57;;;;;;;-2.62;68.81;101399.50;3157503;28;20098;-66
2022/01/13 03:13:24;;;;;;;20.05;7.95;;;;;;;-2.73;68.68;101376.16;3155633;28;20316;-67
2022/01/13 03:14:55;;;;;;;19.52;8.18;;;;;;;-2.61;68.66;101399.53;3157536;28;20047;-67
2022/01/13 03:16:28;;;;;;;18.40;8.32;;;;;;;-2.60;68.67;101403.84;3157084;28;20055;-66
2022/01/13 03:18:00;;;;;;;20.20;8.73;;;;;;;-2.67;68.61;101390.81;3155520;28;20149;-67
2022/01/13 03:19:32;;;;;;;16.67;8.02;;;;;;;-2.68;68.67;101387.41;3157383;28;20044;-66
2022/01/13 03:21:05;;;;;;;21.27;8.85;;;;;;;-2.62;68.71;101396.94;3156332;28;20658;-67
2022/01/13 03:22:38;;;;;;;22.23;8.75;;;;;;;-2.63;69.05;101390.97;3158037;28;20105;-67
2022/01/13 03:24:11;;;;;;;;;;;;;;;-2.82;69.06;101391.16;3157645;28;20151;-67
2022/01/13 03:25:45;;;;;;;16.25;7.88;;;;;;;-2.78;69.23;101390.44;3152604;28;19978;-67
2022/01/13 03:27:21;;;;;;;19.05;8.93;;;;;;;-2.73;69.15;101388.06;3157392;28;20050;-65
2022/01/13 03:29:03;;;;;;;20.35;8.65;;;;;;;-2.72;69.18;101387.22;3155978;28;20573;-66
2022/01/13 03:30:38;;;;;;;17.48;8.00;;;;;;;-2.71;69.19;101392.41;3157868;28;20176;-67
2022/01/13 03:32:10;;;;;;;21.55;9.07;;;;;;;-2.75;69.14;101391.44;3156979;28;20573;-65
2022/01/13 03:33:42;;;;;;;21.38;9.18;;;;;;;-2.91;69.12;101358.56;3156232;28;20047;-67
2022/01/13 03:35:14;;;;;;;19.38;9.00;;;;;;;-2.74;69.03;101397.38;3157256;28;20065;-66
2022/01/13 03:36:46;;;;;;;19.90;9.30;;;;;;;-2.76;69.26;101394.78;3156226;28;20501;-66
2022/01/13 03:38:20;;;;;;;19.65;9.38;;;;;;;-2.75;69.16;101393.13;3151260;28;20138;-66
2022/01/13 03:39:52;;;;;;;20.77;9.20;;;;;;;-2.76;69.35;101399.00;3157394;28;20044;-66
2022/01/13 03:41:22;;;;;;;21.00;8.80;;;;;;;-3.19;69.09;101328.72;3156922;28;20070;-66
2022/01/13 03:42:54;;;;;;;21.88;9.25;;;;;;;-2.78;69.17;101408.28;3153588;28;20048;-67
2022/01/13 03:44:28;;;;;;;19.85;9.90;;;;;;;-2.78;69.21;101404.06;3156704;28;20509;-66
2022/01/13 03:46:00;;;;;;;23.40;10.07;;;;;;;-3.01;69.01;101365.03;3155313;28;20054;-66
2022/01/13 03:47:32;;;;;;;22.17;9.55;;;;;;;-2.84;69.14;101387.66;3155965;28;20101;-66
2022/01/13 03:49:07;;;;;;;23.08;10.15;;;;;;;-2.80;69.03;101398.03;3157150;28;20051;-66
2022/01/13 03:50:39;;;;;;;31.60;10.80;;;;;;;-2.82;69.04;101396.25;3156899;28;20056;-66
2022/01/13 03:52:53;;;;;;;21.80;10.48;;;;;;;-2.88;68.71;101378.19;3157760;28;20063;-66
2022/01/13 03:55:10;;;;;;;23.00;9.88;;;;;;;-2.91;68.88;101394.25;3155741;28;20449;-66
2022/01/13 03:57:39;;;;;;;19.88;9.88;;;;;;;-2.98;69.10;101393.16;3156126;28;20125;-66
2022/01/13 04:00:00;;;;;;;27.58;13.18;;;;;;;-3.04;69.08;101389.53;3155449;28;20052;-66
2022/01/13 04:02:02;;;;;;;37.22;14.73;;;;;;;-3.13;69.20;101374.78;3116758;28;20050;-65
2022/01/13 04:03:34;;;;;;;36.10;15.43;;;;;;;-3.05;69.34;101383.56;3136293;28;20102;-66
2022/01/13 04:05:06;;;;;;;32.60;14.43;;;;;;;-3.01;69.17;101398.16;3157528;28;20113;-66
2022/01/13 04:06:39;;;;;;;25.98;12.18;;;;;;;-2.98;69.02;101394.84;3156277;28;20044;-66
2022/01/13 04:08:11;;;;;;;25.48;12.02;;;;;;;-2.98;68.91;101400.81;3156078;28;20527;-66
2022/01/13 04:10:28;;;;;;;24.98;12.23;;;;;;;-3.02;68.77;101406.63;3157199;28;20051;-66
2022/01/13 04:12:04;;;;;;;20.13;9.80;;;;;;;-3.07;69.19;101403.03;3154023;28;20052;-65
2022/01/13 04:13:47;;;;;;;21.67;10.05;;;;;;;-3.05;69.07;101403.94;3154250;28;20044;-66
2022/01/13 04:15:20;;;;;;;23.75;11.98;;;;;;;-3.06;68.96;101407.31;3155483;28;20621;-65
2022/01/13 04:16:52;;;;;;;21.30;10.20;;;;;;;-3.05;68.88;101413.28;3151309;28;20052;-67
2022/01/13 04:18:24;;;;;;;26.55;11.98;;;;;;;-3.02;68.84;101415.94;3157100;28;20109;-66
2022/01/13 04:19:55;;;;;;;21.90;10.98;;;;;;;-3.01;68.74;101417.69;3156264;28;20044;-65
2022/01/13 04:21:27;;;;;;;19.23;9.32;;;;;;;-3.04;68.65;101418.44;3153700;28;20138;-66
2022/01/13 04:22:59;;;;;;;20.25;9.75;;;;;;;-3.04;68.52;101421.00;3156659;28;20094;-67
2022/01/13 04:24:30;;;;;;;20.15;9.93;;;;;;;-3.01;68.63;101428.75;3156497;28;20052;-65
2022/01/13 04:26:05;;;;;;;20.52;10.20;;;;;;;-3.05;68.46;101426.88;3155442;28;20048;-64
2022/01/13 04:27:44;;;;;;;19.77;9.38;;;;;;;-3.08;68.14;101426.78;3156809;28;20040;-65
2022/01/13 04:29:27;;;;;;;15.52;8.38;;;;;;;-3.03;68.35;101429.50;3155701;28;20123;-65
2022/01/13 04:31:00;;;;;;;;;;;;;;;-3.23;68.69;101438.97;3157985;28;20108;-65
2022/01/13 04:32:32;;;;;;;19.63;8.40;;;;;;;-3.17;68.64;101438.31;3154976;28;19961;-65
2022/01/13 04:34:04;;;;;;;18.30;8.15;;;;;;;-3.11;68.66;101444.50;3156681;28;20120;-67
2022/01/13 04:35:36;;;;;;;19.23;8.95;;;;;;;-3.07;68.34;101445.50;3156892;28;20454;-67
2022/01/13 04:37:08;;;;;;;20.30;9.55;;;;;;;-3.13;68.43;101427.44;3156558;28;20067;-66
2022/01/13 04:38:40;;;;;;;21.15;9.73;;;;;;;-3.06;68.27;101444.69;3153497;28;20060;-65
2022/01/13 04:40:13;;;;;;;21.67;10.10;;;;;;;-3.11;68.34;101429.22;3156446;28;20056;-64
2022/01/13 04:41:47;;;;;;;30.45;11.68;;;;;;;-3.05;68.29;101443.84;3155811;28;20509;-65
2022/01/13 04:43:20;;;;;;;27.50;11.48;;;;;;;-3.03;68.38;101444.78;3156428;28;20066;-64
2022/01/13 04:44:52;;;;;;;28.08;11.10;;;;;;;-3.06;68.37;101445.53;3156284;28;20044;-63
2022/01/13 04:46:24;;;;;;;25.13;11.02;;;;;;;-3.06;68.36;101437.91;3154243;28;20101;-65
2022/01/13 04:47:57;;;;;;;22.58;10.88;;;;;;;-3.07;68.79;101446.38;3157011;28;20040;-64
2022/01/13 04:49:29;;;;;;;21.83;10.27;;;;;;;-3.12;68.29;101434.25;3156125;28;20052;-64
2022/01/13 04:51:01;;;;;;;25.02;10.32;;;;;;;-3.06;68.30;101439.59;3151207;28;20045;-63
2022/01/13 04:52:31;;;;;;;23.23;10.38;;;;;;;-3.07;68.39;101437.84;3156849;28;20044;-65
2022/01/13 04:54:04;;;;;;;22.17;10.65;;;;;;;-3.05;68.33;101446.41;3155181;28;20558;-64
2022/01/13 04:55:37;;;;;;;23.55;10.85;;;;;;;-3.06;68.38;101443.00;3155355;28;20047;-64
2022/01/13 04:57:15;;;;;;;27.00;11.30;;;;;;;-3.08;68.26;101446.28;3153625;28;20058;-64
2022/01/13 04:58:49;;;;;;;22.33;10.95;;;;;;;-3.15;68.31;101440.13;3156062;28;20066;-64
2022/01/13 05:00:20;;;;;;;;;;;;;;;-3.29;68.54;101444.69;3157745;28;20047;-65
2022/01/13 05:01:52;;;;;;;23.27;10.32;;;;;;;-3.26;68.81;101447.34;3155839;28;20297;-64
2022/01/13 05:03:24;;;;;;;28.30;11.40;;;;;;;-3.20;68.70;101456.91;3150802;28;20053;-65
2022/01/13 05:04:55;;;;;;;24.10;11.60;;;;;;;-3.17;68.55;101459.56;3156596;28;20048;-66
2022/01/13 05:06:27;;;;;;;26.77;10.45;;;;;;;-3.38;68.62;101428.19;3155916;28;20072;-66
2022/01/13 05:07:58;;;;;;;24.15;10.77;;;;;;;-3.58;68.27;101390.13;3152267;28;20044;-65
2022/01/13 05:09:30;;;;;;;29.70;11.13;;;;;;;-3.17;68.71;101461.25;3156466;28;20063;-65
2022/01/13 05:11:02;;;;;;;26.23;11.30;;;;;;;-3.21;68.65;101456.03;3154498;28;20592;-65
2022/01/13 05:12:39;;;;;;;25.98;12.07;;;;;;;-3.17;68.43;101463.78;3155052;28;20106;-65
2022/01/13 05:14:12;;;;;;;27.00;11.38;;;;;;;-3.18;68.59;101462.06;3156004;28;20146;-65
2022/01/13 05:15:45;;;;;;;27.88;12.20;;;;;;;-3.24;68.55;101462.72;3155539;28;20097;-65
2022/01/13 05:17:45;;;;;;;28.45;11.77;;;;;;;-3.24;68.71;101455.94;3157048;28;20063;-65
2022/01/13 05:19:19;;;;;;;28.42;11.77;;;;;;;-3.30;68.80;101445.50;3155441;28;20044;-65
2022/01/13 05:20:58;;;;;;;28.27;12.15;;;;;;;-3.28;68.69;101459.19;3151240;28;20051;-64
2022/01/13 05:22:30;;;;;;;28.17;11.95;;;;;;;-3.29;68.84;101464.22;3156219;28;20058;-65
2022/01/13 05:24:02;;;;;;;32.20;11.68;;;;;;;-3.31;68.77;101468.38;3154307;28;20048;-64
2022/01/13 05:25:34;;;;;;;26.55;12.52;;;;;;;-3.28;68.80;101463.41;3154676;28;20417;-65
2022/01/13 05:27:06;;;;;;;26.67;12.75;;;;;;;-3.31;68.63;101461.63;3156238;28;20048;-65
2022/01/13 05:28:40;;;;;;;28.00;12.45;;;;;;;-3.54;68.76;101427.63;3153659;28;20101;-65
2022/01/13 05:30:15;;;;;;;26.65;12.15;;;;;;;-3.34;68.72;101466.59;3156694;28;20423;-65
2022/01/13 05:31:48;;;;;;;33.13;13.40;;;;;;;-3.33;68.86;101472.56;3153738;28;20048;-65
2022/01/13 05:33:20;;;;;;;26.65;12.55;;;;;;;-3.36;68.94;101472.44;3155938;28;20432;-64
2022/01/13 05:34:51;;;;;;;26.02;11.90;;;;;;;-3.35;68.98;101475.03;3156408;28;20112;-64
2022/01/13 05:36:23;;;;;;;25.85;11.10;;;;;;;-3.35;68.89;101472.47;3155492;28;20056;-64
2022/01/13 05:37:55;;;;;;;27.25;11.98;;;;;;;-3.35;69.05;101479.25;3150825;28;20457;-64
2022/01/13 05:39:27;;;;;;;27.48;13.60;;;;;;;-3.35;68.86;101477.56;3159358;28;20048;-64
2022/01/13 05:40:59;;;;;;;37.33;15.68;;;;;;;-3.36;69.07;101480.94;3155189;28;20039;-64
2022/01/13 05:42:31;;;;;;;30.33;13.45;;;;;;;-3.37;68.85;101476.66;3151839;28;20113;-64
2022/01/13 05:44:03;;;;;;;29.25;11.45;;;;;;;-3.34;69.07;101479.34;3149551;28;20101;-64
2022/01/13 05:45:36;;;;;;;26.48;11.27;;;;;;;-3.33;69.03;101480.19;3155721;28;20044;-66
2022/01/13 05:47:11;;;;;;;21.35;10.18;;;;;;;-3.36;68.95;101480.09;3155298;28;20097;-65
2022/01/13 05:48:42;;;;;;;19.98;10.23;;;;;;;-3.34;68.93;101486.09;3155704;28;20578;-66
2022/01/13 05:50:16;;;;;;;22.58;9.55;;;;;;;-3.35;68.93;101485.22;3155586;28;20117;-66
2022/01/13 05:51:48;;;;;;;28.95;11.52;;;;;;;-3.35;68.86;101486.91;3157010;28;20109;-66
2022/01/13 05:53:20;;;;;;;26.75;11.38;;;;;;;-3.35;68.87;101489.44;3155348;28;20117;-66
2022/01/13 05:54:51;;;;;;;23.60;10.40;;;;;;;-3.33;68.88;101493.78;3150014;28;20048;-65
2022/01/13 05:56:25;;;;;;;26.10;12.30;;;;;;;-3.33;68.89;101493.78;3155940;28;20051;-64
2022/01/13 05:57:57;;;;;;;29.08;11.00;;;;;;;-3.33;68.86;101505.66;3155976;28;20101;-66
2022/01/13 05:59:29;;;;;;;25.17;11.18;;;;;;;-3.33;68.89;101498.91;3155399;28;20047;-65
2022/01/13 06:01:02;;;;;;;24.52;10.93;;;;;;;-3.29;68.78;101502.41;3158623;28;20464;-64
2022/01/13 06:02:34;;;;;;;;;;;;;;;-3.47;69.02;101507.69;3156962;28;20137;-65
2022/01/13 06:04:05;;;;;;;20.38;10.10;;;;;;;-3.41;69.21;101504.50;3156681;28;19919;-65
2022/01/13 06:05:37;;;;;;;27.60;10.80;;;;;;;-3.35;69.16;101514.91;3157907;28;20047;-65
2022/01/13 06:07:09;;;;;;;25.52;11.15;;;;;;;-3.34;68.96;101493.72;3157407;28;20044;-64
2022/01/13 06:08:41;;;;;;;26.23;11.20;;;;;;;-3.30;69.00;101504.09;3159552;28;20059;-65
2022/01/13 06:10:18;;;;;;;22.00;11.20;;;;;;;-3.27;68.90;101505.91;3157824;28;20048;-65
2022/01/13 06:11:57;;;;;;;27.88;11.90;;;;;;;-3.26;68.95;101503.41;3154515;28;20048;-64
2022/01/13 06:13:28;;;;;;;30.08;13.65;;;;;;;-3.25;69.05;101499.19;3159101;28;20465;-65
2022/01/13 06:15:01;;;;;;;26.92;13.20;;;;;;;-3.24;69.14;101503.47;3157623;28;20048;-65
2022/01/13 06:16:35;;;;;;;30.45;13.15;;;;;;;-3.23;68.93;101506.06;3155373;28;20048;-64
2022/01/13 06:18:11;;;;;;;25.80;12.70;;;;;;;-3.18;69.12;101519.00;3158294;28;20048;-65
2022/01/13 06:19:42;;;;;;;28.98;12.57;;;;;;;-3.15;69.13;101518.25;3157818;28;20434;-65
2022/01/13 06:21:14;;;;;;;26.40;12.60;;;;;;;-3.12;69.10;101509.03;3157227;28;20048;-65
2022/01/13 06:22:48;;;;;;;25.77;12.32;;;;;;;-3.09;69.09;101514.25;3157988;28;20457;-65
2022/01/13 06:24:20;;;;;;;28.15;12.60;;;;;;;-3.06;69.32;101514.34;3156469;28;20149;-65
2022/01/13 06:25:52;;;;;;;25.20;11.55;;;;;;;-3.09;69.55;101487.91;3159414;28;20081;-64
2022/01/13 06:27:24;;;;;;;23.13;11.13;;;;;;;-2.69;69.72;101518.28;3158477;28;20052;-64
2022/01/13 06:28:56;;;;;;;23.27;11.20;;;;;;;-2.47;70.06;101509.69;3155077;28;20044;-64
2022/01/13 06:30:30;;;;;;;25.50;12.35;;;;;;;-2.26;69.67;101508.72;3157237;28;20047;-64
2022/01/13 06:32:03;;;;;;;26.83;11.75;;;;;;;-2.03;69.66;101514.59;3156251;28;20537;-64
2022/01/13 06:33:35;;;;;;;23.60;10.90;;;;;;;-1.86;69.51;101516.03;3154493;28;20621;-64
2022/01/13 06:35:08;;;;;;;25.83;11.48;;;;;;;-1.72;69.14;101502.00;3157774;28;20101;-65
2022/01/13 06:36:40;;;;;;;22.38;10.65;;;;;;;-1.47;68.89;101519.00;3157932;28;20082;-63
2022/01/13 06:38:12;;;;;;;26.70;10.00;;;;;;;-1.27;68.36;101516.16;3157165;28;20052;-65
2022/01/13 06:39:44;;;;;;;20.15;10.35;;;;;;;-1.08;67.90;101525.28;3158326;28;20075;-64
2022/01/13 06:41:16;;;;;;;20.67;9.10;;;;;;;-0.89;67.41;101530.09;3157712;28;20048;-64
2022/01/13 06:42:48;;;;;;;20.75;9.80;;;;;;;-0.79;67.05;101514.19;3151958;28;20048;-67
2022/01/13 06:44:20;;;;;;;19.98;9.30;;;;;;;-0.60;66.51;101530.94;3157899;28;20048;-67
2022/01/13 06:45:51;;;;;;;21.45;10.55;;;;;;;-0.44;65.98;101528.78;3156905;28;20475;-65
2022/01/13 06:47:25;;;;;;;23.10;10.63;;;;;;;-0.34;65.54;101526.53;3154437;28;20062;-66
2022/01/13 06:48:56;;;;;;;;;;;;;;;-0.46;65.52;101523.66;3159148;28;20052;-66
2022/01/13 06:50:28;;;;;;;21.20;10.45;;;;;;;-0.30;65.19;101525.78;3157350;28;19927;-67
2022/01/13 06:52:01;;;;;;;23.58;11.40;;;;;;;-0.17;64.40;101524.44;3158699;28;20059;-68
2022/01/13 06:53:33;;;;;;;25.77;11.27;;;;;;;-0.07;63.86;101531.50;3156390;28;20044;-66
2022/01/13 06:55:06;;;;;;;21.77;10.68;;;;;;;0.01;63.21;101528.28;3157069;28;20052;-66
2022/01/13 06:56:38;;;;;;;24.13;10.88;;;;;;;0.10;63.13;101533.66;3153319;28;20044;-66
2022/01/13 06:58:10;;;;;;;19.98;9.63;;;;;;;0.13;62.38;101519.22;3157428;28;20048;-66
2022/01/13 06:59:42;;;;;;;21.77;10.15;;;;;;;0.28;62.15;101533.25;3157920;28;20112;-66
2022/01/13 07:01:14;;;;;;;19.88;9.35;;;;;;;0.38;61.69;101530.06;3157807;28;20099;-68
2022/01/13 07:02:47;;;;;;;18.75;9.93;;;;;;;0.47;61.36;101534.53;3157476;28;20121;-68
2022/01/13 07:04:19;;;;;;;18.50;9.38;;;;;;;0.55;61.02;101533.03;3153607;28;20625;-66
2022/01/13 07:05:51;;;;;;;23.15;9.90;;;;;;;0.66;60.70;101541.84;3157973;28;20206;-61
2022/01/13 07:07:23;;;;;;;20.02;9.02;;;;;;;0.72;60.31;101546.25;3156182;28;20082;-63
2022/01/13 07:08:55;;;;;;;20.88;9.68;;;;;;;0.78;60.06;101541.25;3156638;28;20135;-61
2022/01/13 07:10:27;;;;;;;17.52;9.05;;;;;;;0.78;59.81;101534.44;3152976;28;20052;-65
2022/01/13 07:11:59;;;;;;;19.65;9.48;;;;;;;0.92;59.52;101537.31;3154989;28;20044;-64
2022/01/13 07:13:31;;;;;;;18.77;8.65;;;;;;;0.98;59.09;101537.44;3158883;28;20056;-68
2022/01/13 07:15:04;;;;;;;20.95;9.60;;;;;;;1.03;58.74;101545.22;3157048;28;20101;-70
2022/01/13 07:16:36;;;;;;;19.65;9.45;;;;;;;0.89;58.81;101512.47;3150816;28;20048;-65